sensor_id;sensor_type;location;lat;lon;timestamp;temperature;humidity
33109;HTU21D;19481;51.118;6.940;2022-09-29T00:04:39;8.92;77.47
33109;HTU21D;19481;51.118;6.940;2022-09-29T00:09:42;8.89;77.61
33109;HTU21D;19481;51.118;6.940;2022-09-29T00:14:43;8.83;77.48
33109;HTU21D;19481;51.118;6.940;2022-09-29T00:19:45;8.79;78.79
33109;HTU21D;19481;51.118;6.940;2022-09-29T00:24:48;8.74;77.68
33109;HTU21D;19481;51.118;6.940;2022-09-29T00:29:49;8.64;77.95
33109;HTU21D;19481;51.118;6.940;2022-09-29T00:34:51;8.60;78.80
33109;HTU21D;19481;51.118;6.940;2022-09-29T00:39:54;8.48;78.82
33109;HTU21D;19481;51.118;6.940;2022-09-29T00:45:01;8.31;78.69
33109;HTU21D;19481;51.118;6.940;2022-09-29T00:50:05;8.33;78.79
33109;HTU21D;19481;51.118;6.940;2022-09-29T00:55:14;8.24;78.61
33109;HTU21D;19481;51.118;6.940;2022-09-29T01:00:16;8.13;78.50
33109;HTU21D;19481;51.118;6.940;2022-09-29T01:05:18;8.05;78.57
33109;HTU21D;19481;51.118;6.940;2022-09-29T01:10:23;7.92;78.19
33109;HTU21D;19481;51.118;6.940;2022-09-29T01:15:26;7.96;78.63
33109;HTU21D;19481;51.118;6.940;2022-09-29T01:20:30;7.82;78.60
33109;HTU21D;19481;51.118;6.940;2022-09-29T01:25:46;7.72;78.37
33109;HTU21D;19481;51.118;6.940;2022-09-29T01:31:01;7.75;79.06
33109;HTU21D;19481;51.118;6.940;2022-09-29T01:36:07;7.75;78.88
33109;HTU21D;19481;51.118;6.940;2022-09-29T01:41:13;7.72;78.92
33109;HTU21D;19481;51.118;6.940;2022-09-29T01:46:19;7.77;79.06
33109;HTU21D;19481;51.118;6.940;2022-09-29T01:51:23;7.70;79.14
33109;HTU21D;19481;51.118;6.940;2022-09-29T01:56:26;7.70;79.37
33109;HTU21D;19481;51.118;6.940;2022-09-29T02:01:31;7.59;79.25
33109;HTU21D;19481;51.118;6.940;2022-09-29T02:06:33;7.53;79.46
33109;HTU21D;19481;51.118;6.940;2022-09-29T02:11:37;7.44;79.32
33109;HTU21D;19481;51.118;6.940;2022-09-29T02:16:42;7.35;79.32
33109;HTU21D;19481;51.118;6.940;2022-09-29T02:21:44;7.40;79.59
33109;HTU21D;19481;51.118;6.940;2022-09-29T02:26:45;7.32;79.46
33109;HTU21D;19481;51.118;6.940;2022-09-29T02:31:48;7.34;79.64
33109;HTU21D;19481;51.118;6.940;2022-09-29T02:36:53;7.24;79.49
33109;HTU21D;19481;51.118;6.940;2022-09-29T02:42:00;7.13;79.27
33109;HTU21D;19481;51.118;6.940;2022-09-29T02:47:10;7.07;79.23
33109;HTU21D;19481;51.118;6.940;2022-09-29T02:52:17;7.12;79.33
33109;HTU21D;19481;51.118;6.940;2022-09-29T02:57:23;7.05;79.10
33109;HTU21D;19481;51.118;6.940;2022-09-29T03:02:27;7.14;79.61
33109;HTU21D;19481;51.118;6.940;2022-09-29T03:07:29;6.98;79.49
33109;HTU21D;19481;51.118;6.940;2022-09-29T03:12:30;6.72;79.09
33109;HTU21D;19481;51.118;6.940;2022-09-29T03:17:33;6.87;79.64
33109;HTU21D;19481;51.118;6.940;2022-09-29T03:22:35;6.84;79.49
33109;HTU21D;19481;51.118;6.940;2022-09-29T03:27:36;6.76;79.27
33109;HTU21D;19481;51.118;6.940;2022-09-29T03:32:40;6.79;79.40
33109;HTU21D;19481;51.118;6.940;2022-09-29T03:37:41;6.70;79.41
33109;HTU21D;19481;51.118;6.940;2022-09-29T03:42:44;6.73;79.75
33109;HTU21D;19481;51.118;6.940;2022-09-29T03:47:46;6.51;79.14
33109;HTU21D;19481;51.118;6.940;2022-09-29T03:52:48;6.41;79.11
33109;HTU21D;19481;51.118;6.940;2022-09-29T03:57:50;6.45;79.33
33109;HTU21D;19481;51.118;6.940;2022-09-29T04:02:54;6.44;79.53
33109;HTU21D;19481;51.118;6.940;2022-09-29T04:07:55;6.25;79.30
33109;HTU21D;19481;51.118;6.940;2022-09-29T04:12:57;6.21;79.40
33109;HTU21D;19481;51.118;6.940;2022-09-29T04:17:59;6.16;79.26
33109;HTU21D;19481;51.118;6.940;2022-09-29T04:23:01;6.07;79.24
33109;HTU21D;19481;51.118;6.940;2022-09-29T04:28:03;6.13;79.27
33109;HTU21D;19481;51.118;6.940;2022-09-29T04:33:06;6.17;79.43
33109;HTU21D;19481;51.118;6.940;2022-09-29T04:38:07;6.22;79.44
33109;HTU21D;19481;51.118;6.940;2022-09-29T04:43:09;6.24;79.64
33109;HTU21D;19481;51.118;6.940;2022-09-29T04:48:12;6.16;79.27
33109;HTU21D;19481;51.118;6.940;2022-09-29T04:53:13;6.10;79.05
33109;HTU21D;19481;51.118;6.940;2022-09-29T04:58:15;6.09;78.95
33109;HTU21D;19481;51.118;6.940;2022-09-29T05:03:17;5.99;78.85
33109;HTU21D;19481;51.118;6.940;2022-09-29T05:08:19;5.94;78.70
33109;HTU21D;19481;51.118;6.940;2022-09-29T05:13:20;5.94;79.51
33109;HTU21D;19481;51.118;6.940;2022-09-29T05:18:23;5.92;78.88
33109;HTU21D;19481;51.118;6.940;2022-09-29T05:23:25;5.85;78.95
33109;HTU21D;19481;51.118;6.940;2022-09-29T05:28:28;5.83;78.88
33109;HTU21D;19481;51.118;6.940;2022-09-29T05:33:31;5.71;78.87
33109;HTU21D;19481;51.118;6.940;2022-09-29T05:38:33;5.67;78.98
33109;HTU21D;19481;51.118;6.940;2022-09-29T05:43:34;5.69;78.97
33109;HTU21D;19481;51.118;6.940;2022-09-29T05:48:37;5.82;79.03
33109;HTU21D;19481;51.118;6.940;2022-09-29T05:53:39;5.84;78.99
33109;HTU21D;19481;51.118;6.940;2022-09-29T05:58:40;5.87;79.09
33109;HTU21D;19481;51.118;6.940;2022-09-29T06:03:43;5.93;79.01
33109;HTU21D;19481;51.118;6.940;2022-09-29T06:08:45;6.07;78.85
33109;HTU21D;19481;51.118;6.940;2022-09-29T06:13:47;6.09;78.50
33109;HTU21D;19481;51.118;6.940;2022-09-29T06:18:50;6.25;78.84
33109;HTU21D;19481;51.118;6.940;2022-09-29T06:23:52;6.36;78.69
33109;HTU21D;19481;51.118;6.940;2022-09-29T06:28:55;6.50;78.60
33109;HTU21D;19481;51.118;6.940;2022-09-29T06:33:59;6.65;78.03
33109;HTU21D;19481;51.118;6.940;2022-09-29T06:39:01;6.84;78.08
33109;HTU21D;19481;51.118;6.940;2022-09-29T06:44:02;6.98;77.98
33109;HTU21D;19481;51.118;6.940;2022-09-29T06:49:05;7.13;77.68
33109;HTU21D;19481;51.118;6.940;2022-09-29T06:54:07;7.27;77.16
33109;HTU21D;19481;51.118;6.940;2022-09-29T06:59:08;7.49;76.77
33109;HTU21D;19481;51.118;6.940;2022-09-29T07:04:11;11.39;70.71
33109;HTU21D;19481;51.118;6.940;2022-09-29T07:09:12;13.88;53.51
33109;HTU21D;19481;51.118;6.940;2022-09-29T07:14:16;15.51;50.30
33109;HTU21D;19481;51.118;6.940;2022-09-29T07:19:19;16.17;48.46
33109;HTU21D;19481;51.118;6.940;2022-09-29T07:24:21;16.02;49.98
33109;HTU21D;19481;51.118;6.940;2022-09-29T07:29:24;17.74;42.19
33109;HTU21D;19481;51.118;6.940;2022-09-29T07:34:26;18.07;42.29
33109;HTU21D;19481;51.118;6.940;2022-09-29T07:39:28;18.25;40.58
33109;HTU21D;19481;51.118;6.940;2022-09-29T07:44:29;18.78;42.32
33109;HTU21D;19481;51.118;6.940;2022-09-29T07:49:33;19.00;41.83
33109;HTU21D;19481;51.118;6.940;2022-09-29T07:54:34;17.79;45.47
33109;HTU21D;19481;51.118;6.940;2022-09-29T07:59:36;18.15;40.45
33109;HTU21D;19481;51.118;6.940;2022-09-29T08:04:39;17.55;43.48
33109;HTU21D;19481;51.118;6.940;2022-09-29T08:09:40;20.00;37.96
33109;HTU21D;19481;51.118;6.940;2022-09-29T08:14:42;20.57;34.81
33109;HTU21D;19481;51.118;6.940;2022-09-29T08:19:44;21.01;39.12
33109;HTU21D;19481;51.118;6.940;2022-09-29T08:24:47;16.72;45.70
33109;HTU21D;19481;51.118;6.940;2022-09-29T08:29:48;16.25;47.50
33109;HTU21D;19481;51.118;6.940;2022-09-29T08:34:51;16.77;45.47
33109;HTU21D;19481;51.118;6.940;2022-09-29T08:39:52;16.45;46.24
33109;HTU21D;19481;51.118;6.940;2022-09-29T08:44:54;16.98;45.74
33109;HTU21D;19481;51.118;6.940;2022-09-29T08:49:59;17.03;46.78
33109;HTU21D;19481;51.118;6.940;2022-09-29T08:55:19;17.51;46.03
33109;HTU21D;19481;51.118;6.940;2022-09-29T09:00:23;17.49;45.83
33109;HTU21D;19481;51.118;6.940;2022-09-29T09:05:47;17.58;44.88
33109;HTU21D;19481;51.118;6.940;2022-09-29T09:10:55;18.64;44.24
33109;HTU21D;19481;51.118;6.940;2022-09-29T09:16:06;19.85;42.00
33109;HTU21D;19481;51.118;6.940;2022-09-29T09:21:13;20.64;37.71
33109;HTU21D;19481;51.118;6.940;2022-09-29T09:26:17;18.69;40.26
33109;HTU21D;19481;51.118;6.940;2022-09-29T09:31:19;18.23;42.34
33109;HTU21D;19481;51.118;6.940;2022-09-29T09:36:24;19.24;41.55
33109;HTU21D;19481;51.118;6.940;2022-09-29T09:41:29;18.54;42.69
33109;HTU21D;19481;51.118;6.940;2022-09-29T09:46:34;18.06;42.81
33109;HTU21D;19481;51.118;6.940;2022-09-29T09:51:42;18.89;39.61
33109;HTU21D;19481;51.118;6.940;2022-09-29T09:56:51;19.29;40.04
33109;HTU21D;19481;51.118;6.940;2022-09-29T10:01:55;19.37;39.02
33109;HTU21D;19481;51.118;6.940;2022-09-29T10:06:57;19.87;41.36
33109;HTU21D;19481;51.118;6.940;2022-09-29T10:11:59;19.81;39.00
33109;HTU21D;19481;51.118;6.940;2022-09-29T10:17:01;19.48;39.86
33109;HTU21D;19481;51.118;6.940;2022-09-29T10:22:10;19.22;41.28
33109;HTU21D;19481;51.118;6.940;2022-09-29T10:27:16;18.93;40.26
33109;HTU21D;19481;51.118;6.940;2022-09-29T10:32:20;19.02;40.78
33109;HTU21D;19481;51.118;6.940;2022-09-29T10:37:26;19.83;41.00
33109;HTU21D;19481;51.118;6.940;2022-09-29T10:42:30;20.11;40.07
33109;HTU21D;19481;51.118;6.940;2022-09-29T10:47:32;21.02;39.10
33109;HTU21D;19481;51.118;6.940;2022-09-29T10:52:35;21.58;33.05
33109;HTU21D;19481;51.118;6.940;2022-09-29T10:57:37;20.60;36.13
33109;HTU21D;19481;51.118;6.940;2022-09-29T11:02:39;21.49;36.24
33109;HTU21D;19481;51.118;6.940;2022-09-29T11:07:44;21.44;35.68
33109;HTU21D;19481;51.118;6.940;2022-09-29T11:12:47;22.18;31.35
33109;HTU21D;19481;51.118;6.940;2022-09-29T11:17:49;22.38;31.45
33109;HTU21D;19481;51.118;6.940;2022-09-29T11:22:56;20.92;34.95
33109;HTU21D;19481;51.118;6.940;2022-09-29T11:28:10;20.87;34.21
33109;HTU21D;19481;51.118;6.940;2022-09-29T11:33:18;21.76;33.09
33109;HTU21D;19481;51.118;6.940;2022-09-29T11:38:29;22.26;30.39
33109;HTU21D;19481;51.118;6.940;2022-09-29T11:43:41;21.40;35.50
33109;HTU21D;19481;51.118;6.940;2022-09-29T11:48:51;22.43;33.31
33109;HTU21D;19481;51.118;6.940;2022-09-29T11:53:58;22.05;29.27
33109;HTU21D;19481;51.118;6.940;2022-09-29T11:59:08;21.19;36.27
33109;HTU21D;19481;51.118;6.940;2022-09-29T12:04:16;22.62;29.46
33109;HTU21D;19481;51.118;6.940;2022-09-29T12:09:29;22.55;30.23
33109;HTU21D;19481;51.118;6.940;2022-09-29T12:14:42;21.92;31.45
33109;HTU21D;19481;51.118;6.940;2022-09-29T12:19:44;21.36;35.84
33109;HTU21D;19481;51.118;6.940;2022-09-29T12:24:50;20.41;35.28
33109;HTU21D;19481;51.118;6.940;2022-09-29T12:29:54;19.39;37.08
33109;HTU21D;19481;51.118;6.940;2022-09-29T12:34:57;18.74;37.92
33109;HTU21D;19481;51.118;6.940;2022-09-29T12:40:02;18.28;40.89
33109;HTU21D;19481;51.118;6.940;2022-09-29T12:45:05;18.19;39.59
33109;HTU21D;19481;51.118;6.940;2022-09-29T12:50:09;17.85;41.12
33109;HTU21D;19481;51.118;6.940;2022-09-29T12:55:16;17.37;39.85
33109;HTU21D;19481;51.118;6.940;2022-09-29T13:00:18;17.33;41.31
33109;HTU21D;19481;51.118;6.940;2022-09-29T13:05:37;17.20;41.18
33109;HTU21D;19481;51.118;6.940;2022-09-29T13:10:52;17.17;40.03
33109;HTU21D;19481;51.118;6.940;2022-09-29T13:16:00;16.88;41.00
33109;HTU21D;19481;51.118;6.940;2022-09-29T13:21:12;16.82;41.63
33109;HTU21D;19481;51.118;6.940;2022-09-29T13:26:26;16.79;42.07
33109;HTU21D;19481;51.118;6.940;2022-09-29T13:31:30;16.58;41.94
33109;HTU21D;19481;51.118;6.940;2022-09-29T13:36:37;16.62;43.26
33109;HTU21D;19481;51.118;6.940;2022-09-29T13:41:42;16.42;43.55
33109;HTU21D;19481;51.118;6.940;2022-09-29T13:46:44;16.29;43.93
33109;HTU21D;19481;51.118;6.940;2022-09-29T13:51:46;16.20;44.00
33109;HTU21D;19481;51.118;6.940;2022-09-29T13:56:51;16.57;42.66
33109;HTU21D;19481;51.118;6.940;2022-09-29T14:01:59;16.20;44.95
33109;HTU21D;19481;51.118;6.940;2022-09-29T14:07:00;15.93;42.65
33109;HTU21D;19481;51.118;6.940;2022-09-29T14:12:04;16.02;43.18
33109;HTU21D;19481;51.118;6.940;2022-09-29T14:17:08;16.19;44.22
33109;HTU21D;19481;51.118;6.940;2022-09-29T14:27:32;16.92;41.01
33109;HTU21D;19481;51.118;6.940;2022-09-29T14:32:37;16.69;40.25
33109;HTU21D;19481;51.118;6.940;2022-09-29T14:37:41;16.52;40.54
33109;HTU21D;19481;51.118;6.940;2022-09-29T14:42:45;17.01;40.96
33109;HTU21D;19481;51.118;6.940;2022-09-29T14:47:48;16.93;41.26
33109;HTU21D;19481;51.118;6.940;2022-09-29T14:53:16;16.72;42.39
33109;HTU21D;19481;51.118;6.940;2022-09-29T14:58:25;16.56;43.26
33109;HTU21D;19481;51.118;6.940;2022-09-29T15:03:30;16.34;43.00
33109;HTU21D;19481;51.118;6.940;2022-09-29T15:08:34;16.20;44.01
33109;HTU21D;19481;51.118;6.940;2022-09-29T15:13:38;16.08;44.83
33109;HTU21D;19481;51.118;6.940;2022-09-29T15:18:47;16.04;43.82
33109;HTU21D;19481;51.118;6.940;2022-09-29T15:23:59;16.01;44.04
33109;HTU21D;19481;51.118;6.940;2022-09-29T15:29:05;15.78;44.29
33109;HTU21D;19481;51.118;6.940;2022-09-29T15:34:08;15.60;44.12
33109;HTU21D;19481;51.118;6.940;2022-09-29T15:39:22;15.43;44.35
33109;HTU21D;19481;51.118;6.940;2022-09-29T15:44:34;15.49;45.34
33109;HTU21D;19481;51.118;6.940;2022-09-29T15:49:36;15.47;45.87
33109;HTU21D;19481;51.118;6.940;2022-09-29T15:54:52;15.34;45.80
33109;HTU21D;19481;51.118;6.940;2022-09-29T15:59:55;15.17;46.74
33109;HTU21D;19481;51.118;6.940;2022-09-29T16:04:57;15.08;47.15
33109;HTU21D;19481;51.118;6.940;2022-09-29T16:10:02;15.03;46.90
33109;HTU21D;19481;51.118;6.940;2022-09-29T16:15:09;14.89;47.15
33109;HTU21D;19481;51.118;6.940;2022-09-29T16:20:13;14.86;46.91
33109;HTU21D;19481;51.118;6.940;2022-09-29T16:25:22;14.79;47.29
33109;HTU21D;19481;51.118;6.940;2022-09-29T16:30:27;14.63;49.27
33109;HTU21D;19481;51.118;6.940;2022-09-29T16:35:39;14.32;51.56
33109;HTU21D;19481;51.118;6.940;2022-09-29T16:40:41;14.12;52.75
33109;HTU21D;19481;51.118;6.940;2022-09-29T16:45:47;13.69;54.85
33109;HTU21D;19481;51.118;6.940;2022-09-29T16:50:51;13.55;55.58
33109;HTU21D;19481;51.118;6.940;2022-09-29T16:55:54;13.31;57.29
33109;HTU21D;19481;51.118;6.940;2022-09-29T17:00:58;13.09;58.02
33109;HTU21D;19481;51.118;6.940;2022-09-29T17:05:59;12.92;58.10
33109;HTU21D;19481;51.118;6.940;2022-09-29T17:11:02;12.77;58.99
33109;HTU21D;19481;51.118;6.940;2022-09-29T17:16:05;12.62;59.19
33109;HTU21D;19481;51.118;6.940;2022-09-29T17:21:07;12.44;59.66
33109;HTU21D;19481;51.118;6.940;2022-09-29T17:26:12;12.18;60.48
33109;HTU21D;19481;51.118;6.940;2022-09-29T17:31:36;12.04;61.37
33109;HTU21D;19481;51.118;6.940;2022-09-29T17:36:37;11.93;61.77
33109;HTU21D;19481;51.118;6.940;2022-09-29T17:41:39;11.70;63.32
33109;HTU21D;19481;51.118;6.940;2022-09-29T17:46:42;11.63;63.94
33109;HTU21D;19481;51.118;6.940;2022-09-29T17:51:43;11.52;64.76
33109;HTU21D;19481;51.118;6.940;2022-09-29T17:56:44;11.44;64.87
33109;HTU21D;19481;51.118;6.940;2022-09-29T18:01:47;11.39;64.69
33109;HTU21D;19481;51.118;6.940;2022-09-29T18:06:49;11.10;65.92
33109;HTU21D;19481;51.118;6.940;2022-09-29T18:11:52;11.04;66.33
33109;HTU21D;19481;51.118;6.940;2022-09-29T18:16:55;10.79;67.04
33109;HTU21D;19481;51.118;6.940;2022-09-29T18:21:57;10.62;67.80
33109;HTU21D;19481;51.118;6.940;2022-09-29T18:27:00;10.51;68.23
33109;HTU21D;19481;51.118;6.940;2022-09-29T18:32:03;10.54;68.47
33109;HTU21D;19481;51.118;6.940;2022-09-29T18:37:04;10.55;68.96
33109;HTU21D;19481;51.118;6.940;2022-09-29T18:42:07;10.33;69.71
33109;HTU21D;19481;51.118;6.940;2022-09-29T18:47:10;10.15;70.11
33109;HTU21D;19481;51.118;6.940;2022-09-29T18:52:12;10.01;70.33
33109;HTU21D;19481;51.118;6.940;2022-09-29T18:57:13;9.98;70.06
33109;HTU21D;19481;51.118;6.940;2022-09-29T19:02:16;9.89;70.16
33109;HTU21D;19481;51.118;6.940;2022-09-29T19:07:18;9.90;70.03
33109;HTU21D;19481;51.118;6.940;2022-09-29T19:12:19;9.72;70.23
33109;HTU21D;19481;51.118;6.940;2022-09-29T19:17:27;9.63;70.90
33109;HTU21D;19481;51.118;6.940;2022-09-29T19:22:29;9.53;70.73
33109;HTU21D;19481;51.118;6.940;2022-09-29T19:27:35;9.48;70.71
33109;HTU21D;19481;51.118;6.940;2022-09-29T19:32:37;9.38;70.31
33109;HTU21D;19481;51.118;6.940;2022-09-29T19:37:39;9.32;70.72
33109;HTU21D;19481;51.118;6.940;2022-09-29T19:42:40;9.29;70.48
33109;HTU21D;19481;51.118;6.940;2022-09-29T19:47:43;9.10;71.24
33109;HTU21D;19481;51.118;6.940;2022-09-29T19:52:45;8.92;71.87
33109;HTU21D;19481;51.118;6.940;2022-09-29T19:57:46;8.97;72.91
33109;HTU21D;19481;51.118;6.940;2022-09-29T20:02:49;8.97;73.22
33109;HTU21D;19481;51.118;6.940;2022-09-29T20:07:51;8.89;73.32
33109;HTU21D;19481;51.118;6.940;2022-09-29T20:12:53;8.85;73.06
33109;HTU21D;19481;51.118;6.940;2022-09-29T20:17:56;8.67;73.12
33109;HTU21D;19481;51.118;6.940;2022-09-29T20:22:57;8.76;73.41
33109;HTU21D;19481;51.118;6.940;2022-09-29T20:28:00;8.70;73.14
33109;HTU21D;19481;51.118;6.940;2022-09-29T20:33:02;8.59;73.16
33109;HTU21D;19481;51.118;6.940;2022-09-29T20:38:04;8.58;73.73
33109;HTU21D;19481;51.118;6.940;2022-09-29T20:43:06;8.55;73.73
33109;HTU21D;19481;51.118;6.940;2022-09-29T20:48:11;8.39;73.30
33109;HTU21D;19481;51.118;6.940;2022-09-29T20:53:12;8.27;73.62
33109;HTU21D;19481;51.118;6.940;2022-09-29T20:58:14;8.17;73.79
33109;HTU21D;19481;51.118;6.940;2022-09-29T21:03:16;8.15;73.70
33109;HTU21D;19481;51.118;6.940;2022-09-29T21:08:18;7.99;73.48
33109;HTU21D;19481;51.118;6.940;2022-09-29T21:13:19;7.88;74.03
33109;HTU21D;19481;51.118;6.940;2022-09-29T21:18:25;7.89;74.82
33109;HTU21D;19481;51.118;6.940;2022-09-29T21:23:28;7.79;74.64
33109;HTU21D;19481;51.118;6.940;2022-09-29T21:28:30;7.71;74.46
33109;HTU21D;19481;51.118;6.940;2022-09-29T21:33:33;7.59;74.67
33109;HTU21D;19481;51.118;6.940;2022-09-29T21:38:36;7.52;74.81
33109;HTU21D;19481;51.118;6.940;2022-09-29T21:43:38;7.43;74.59
33109;HTU21D;19481;51.118;6.940;2022-09-29T21:48:44;7.38;74.67
33109;HTU21D;19481;51.118;6.940;2022-09-29T21:53:46;7.33;74.75
33109;HTU21D;19481;51.118;6.940;2022-09-29T21:58:47;7.23;74.79
33109;HTU21D;19481;51.118;6.940;2022-09-29T22:03:51;7.19;74.55
33109;HTU21D;19481;51.118;6.940;2022-09-29T22:08:53;7.37;75.39
33109;HTU21D;19481;51.118;6.940;2022-09-29T22:13:55;7.26;75.12
33109;HTU21D;19481;51.118;6.940;2022-09-29T22:18:59;7.17;75.46
33109;HTU21D;19481;51.118;6.940;2022-09-29T22:24:01;7.07;75.31
33109;HTU21D;19481;51.118;6.940;2022-09-29T22:29:03;6.95;75.19
33109;HTU21D;19481;51.118;6.940;2022-09-29T22:34:06;6.89;75.27
33109;HTU21D;19481;51.118;6.940;2022-09-29T22:39:08;6.95;75.21
33109;HTU21D;19481;51.118;6.940;2022-09-29T22:44:09;7.04;75.38
33109;HTU21D;19481;51.118;6.940;2022-09-29T22:49:12;6.86;74.97
33109;HTU21D;19481;51.118;6.940;2022-09-29T22:54:14;6.84;74.78
33109;HTU21D;19481;51.118;6.940;2022-09-29T22:59:15;6.90;74.95
33109;HTU21D;19481;51.118;6.940;2022-09-29T23:04:19;6.83;75.10
33109;HTU21D;19481;51.118;6.940;2022-09-29T23:09:22;6.78;74.99
33109;HTU21D;19481;51.118;6.940;2022-09-29T23:14:24;6.66;74.84
33109;HTU21D;19481;51.118;6.940;2022-09-29T23:19:26;6.75;75.70
33109;HTU21D;19481;51.118;6.940;2022-09-29T23:24:28;6.61;75.61
33109;HTU21D;19481;51.118;6.940;2022-09-29T23:29:29;6.51;75.62
33109;HTU21D;19481;51.118;6.940;2022-09-29T23:34:32;6.50;75.92
33109;HTU21D;19481;51.118;6.940;2022-09-29T23:39:34;6.34;75.95
33109;HTU21D;19481;51.118;6.940;2022-09-29T23:44:35;6.22;75.91
33109;HTU21D;19481;51.118;6.940;2022-09-29T23:49:41;6.14;75.80
33109;HTU21D;19481;51.118;6.940;2022-09-29T23:54:42;6.13;75.66
33109;HTU21D;19481;51.118;6.940;2022-09-29T23:59:44;6.16;75.48
